Decoded Metar for PADM (MARSHALL in AK, USA) (IATA:N/A) | Meteo·Mobile Aviation Weather
aviador You're here:

PADM Decoded Metar

MARSHALL in AK, USA
Report Time2019-03-23 08:02:00
UTC Time2019-03-23 09:00:51
Flight Rules vfr VFR
Wind110° at 20 Gusting to 24 kt
W.Decomp.*RWY 07: 17.8 kt HW 9.1 kt RCW
W.Rank110° ranks 18
Current wind is above 110° avg. (11.4)
Visibility9999 m
Phenomena:N/A
Clouds:N/A
Expected CloudBase > 2,800 ft AGL from Temp-Dew spread
CeilingNone
Temp06°C (ISA -9)
Dew Point-1°C (61% RH)
AAT-3.3°C
QNH996 hPa
Density Alt-299 ft
Elevation102 ft
Report Wrong Elevation
Raw Report
PADM 230802Z AUTO 11020G24KT 10SM CLR 06/M01 A2942 RMK AO2 SLP972
T00561006 400560056=

Extra information for PADM:More info

Metar Taf Metar & Taf Last 4 Metars F.Rules Stats Wind Profile Meteogram Temp Stats Airport Information Weather charts Add Link Nearby VenuesMetar ALERT Operation Metar Decoded Social comments

AIRNAV info for PADM